Joensuu

Airport
ICAO code: 
EFJO
Summary
ICAO Region: 
EUR
Territory: 
Location: 
Joensuu,
Coordinates: 
Aerial View: 
62° 39' 41.801" N, 29° 36' 35.535" E
Airport GND: 
Aircraft Ground De/Anti Icing
Airport RE: 
Landing on Contaminated Runways
Metar
Observation
EFJO 271650Z AUTO 06004KT 010V110 9999 -SHSN OVC003 M10/M11 Q1009
Station
Joensuu
Date/Time
2021-11-27 16:50:00
Wind direction
60°
Wind speed
04 kts
Lowest cloud amount
overcast
Temperature
-10°C
Dew point
-11°C
Humidity
92%
QNH
1009 hPa
Weather condition
light showers snow

Description

Largely domestic but also international airport serving the city of Joensuu in Finland. The airport is located 7nm northwest of the city centre.

Climatology

Subarctic climate (Köppen climate classification Dfc) - long, usually very cold winters, and short, cool to mild summers.

Runways

Designator Length Width Surface Rops
17/35 1200 30 COM Yes/Yes
10/28 2500 52 ASP Yes/Yes
Airport map: 
Aerial View: 

SKYbrary Partners:

Safety knowledge contributed by: